Ana Sayfa
METAR-TAF:

METAR-TAF

Havaalanları :

Dumas, Teksas, Amerika Birleşik Devletleri

Enlem: 35-51-28N, Boylam: 102-00-47W, yükseklik: 1129 m

Güncel hava durumu gözlemi

Rapor saat 11:55 UTC de 44 dakika önce yapıldı.
Rüzgar güney/güneydoğudan 6 kt
Sıcaklık 18°C
Nem 88%
Basınç 1012 hPa
Görüş mesafesi: 16.1 km
Açık gökyüzü

METAR: KDUX 161155Z AUTO 15006KT 10SM CLR 18/16 A2989 RMK AO2 T01770162 10220 20177

Saat: 07:39 (12:39 UTC)


TAF: eksik

4.000'den fazla havaalanı için hava durumu gözlemleri ve tahminleri (METAR ve TAF raporları).

Kullanılabilir istasyonlar harita üzerinde sarı ve kırmızı noktalarla gösterilir.

İstasyonun adını görmek için fareyi noktanın üzerinde gezdirin.

Sonrasında hava gözlem ve tahminlerini görmek için tıklayın.

Haritayı değiştirmek için: yaklaştırmak için siyah artı işaretli yeşil düğmeye ve uzaklaştırmak için de eksi işaretli düğmeye hızla tıklayın; bitişik haritalar için yeşil okları kullanın.


METAR-TAF: